createdAt,value
2018-09-05T00:00:28.914Z,24.33
2018-09-05T00:02:57.698Z,25.67
2018-09-05T00:05:26.535Z,27.23
2018-09-05T00:07:55.304Z,27.10
2018-09-05T00:10:24.100Z,25.57
2018-09-05T00:12:52.987Z,25.60
2018-09-05T00:15:21.857Z,24.20
2018-09-05T00:17:50.616Z,26.00
2018-09-05T00:20:19.410Z,25.03
2018-09-05T00:22:48.330Z,25.37
2018-09-05T00:25:17.138Z,26.27
2018-09-05T00:27:46.325Z,24.47
2018-09-05T00:30:15.138Z,27.53
2018-09-05T00:32:43.956Z,24.27
2018-09-05T00:35:12.811Z,25.70
2018-09-05T00:37:42.076Z,23.60
2018-09-05T00:40:10.839Z,26.20
2018-09-05T00:42:39.626Z,24.07
2018-09-05T00:45:08.426Z,26.67
2018-09-05T00:47:37.211Z,26.70
2018-09-05T00:50:06.264Z,28.20
2018-09-05T00:52:35.530Z,26.87
2018-09-05T00:55:04.397Z,27.87
2018-09-05T00:57:33.239Z,25.97
2018-09-05T01:00:02.037Z,27.33
2018-09-05T01:02:30.874Z,30.00
2018-09-05T01:04:59.767Z,27.67
2018-09-05T01:07:29.338Z,26.70
2018-09-05T01:09:58.169Z,30.50
2018-09-05T01:12:26.987Z,28.57
2018-09-05T01:14:56.128Z,27.90
2018-09-05T01:17:25.041Z,27.40
2018-09-05T01:19:53.970Z,28.37
2018-09-05T01:22:22.782Z,27.00
2018-09-05T01:24:51.640Z,28.37
2018-09-05T01:27:20.538Z,28.63
2018-09-05T01:29:49.346Z,28.77
2018-09-05T01:32:18.247Z,27.87
2018-09-05T01:34:47.119Z,31.30
2018-09-05T01:37:15.942Z,32.43
2018-09-05T01:39:45.041Z,29.47
2018-09-05T01:42:13.866Z,30.00
2018-09-05T01:44:42.706Z,31.07
2018-09-05T01:47:11.516Z,29.93
2018-09-05T01:49:40.479Z,31.43
2018-09-05T01:52:09.264Z,29.97
2018-09-05T01:54:40.958Z,29.37
2018-09-05T01:57:10.172Z,30.23
2018-09-05T01:59:38.972Z,31.07
2018-09-05T02:02:07.762Z,32.77
2018-09-05T02:04:36.646Z,32.33
2018-09-05T02:07:05.433Z,32.50
2018-09-05T02:09:34.378Z,31.43
2018-09-05T02:12:03.156Z,33.10
2018-09-05T02:14:31.952Z,31.70
2018-09-05T02:17:06.392Z,31.47
2018-09-05T02:19:35.188Z,33.33
2018-09-05T02:22:04.031Z,32.87
2018-09-05T02:24:32.874Z,32.70
2018-09-05T02:27:05.563Z,32.90
2018-09-05T02:29:34.578Z,32.13
2018-09-05T02:32:04.058Z,33.20
2018-09-05T02:34:32.900Z,32.43
2018-09-05T02:37:01.664Z,30.80
2018-09-05T02:39:30.435Z,33.20
2018-09-05T02:41:59.212Z,33.27
2018-09-05T02:44:28.111Z,32.33
2018-09-05T02:46:56.886Z,32.57
2018-09-05T02:49:25.736Z,33.50
2018-09-05T02:51:54.499Z,31.57
2018-09-05T02:54:23.530Z,32.33
2018-09-05T02:56:52.382Z,30.93
2018-09-05T02:59:21.202Z,33.83
2018-09-05T03:01:50.033Z,33.23
2018-09-05T03:04:20.876Z,29.90
2018-09-05T03:06:50.064Z,32.40
2018-09-05T03:09:19.818Z,34.10
2018-09-05T03:11:48.801Z,31.63
2018-09-05T03:14:17.578Z,31.93
2018-09-05T03:16:46.377Z,30.90
2018-09-05T03:19:15.158Z,30.47
2018-09-05T03:21:46.863Z,32.03
2018-09-05T03:24:15.703Z,32.07
2018-09-05T03:26:44.487Z,32.47
2018-09-05T03:29:13.240Z,30.80
2018-09-05T03:31:42.040Z,31.73
2018-09-05T03:34:10.794Z,31.30
2018-09-05T03:36:39.807Z,32.67
2018-09-05T03:39:10.509Z,31.23
2018-09-05T03:41:39.326Z,32.67
2018-09-05T03:44:08.125Z,30.10
2018-09-05T03:46:36.951Z,29.20
2018-09-05T03:49:05.926Z,29.87
2018-09-05T03:51:34.730Z,31.30
2018-09-05T03:54:03.585Z,28.87
2018-09-05T03:56:32.349Z,30.17
2018-09-05T03:59:01.169Z,28.87
2018-09-05T04:01:30.367Z,29.83
2018-09-05T04:03:59.189Z,28.57
2018-09-05T04:06:28.021Z,28.07
2018-09-05T04:08:56.841Z,29.53
2018-09-05T04:11:26.044Z,31.80
2018-09-05T04:13:54.865Z,28.90
2018-09-05T04:16:23.734Z,29.23
2018-09-05T04:18:52.571Z,27.67
2018-09-05T04:21:26.580Z,27.67
2018-09-05T04:23:55.811Z,29.13
2018-09-05T04:26:24.650Z,28.73
2018-09-05T04:28:53.485Z,30.70
2018-09-05T04:31:22.291Z,29.03
2018-09-05T04:33:51.085Z,27.50
2018-09-05T04:36:19.921Z,27.60
2018-09-05T04:38:48.717Z,27.60
2018-09-05T04:41:17.627Z,28.43
2018-09-05T04:43:46.429Z,27.80
2018-09-05T04:46:15.236Z,26.07
2018-09-05T04:48:44.076Z,26.80
2018-09-05T04:51:12.894Z,25.10
2018-09-05T04:53:41.645Z,25.03
2018-09-05T04:56:10.475Z,28.00
2018-09-05T04:58:39.280Z,29.20
2018-09-05T05:01:08.108Z,32.80
2018-09-05T05:03:36.928Z,29.93
2018-09-05T05:06:05.777Z,26.83
2018-09-05T05:08:34.552Z,25.00
2018-09-05T05:11:03.355Z,26.00
2018-09-05T05:13:32.159Z,24.33
2018-09-05T05:16:00.957Z,26.20
2018-09-05T05:18:29.752Z,26.20
2018-09-05T05:20:58.546Z,24.80
2018-09-05T05:23:27.364Z,22.63
2018-09-05T05:25:56.162Z,21.40
2018-09-05T05:28:25.006Z,21.43
2018-09-05T05:30:53.895Z,19.57
2018-09-05T05:33:22.720Z,19.37
2018-09-05T05:35:51.537Z,19.43
2018-09-05T05:38:20.355Z,19.50
2018-09-05T05:40:49.136Z,18.33
2018-09-05T05:43:17.947Z,17.50
2018-09-05T05:45:46.791Z,18.17
2018-09-05T05:48:17.329Z,17.50
2018-09-05T05:50:46.142Z,18.33
2018-09-05T05:53:14.967Z,18.30
2018-09-05T05:55:43.837Z,17.03
2018-09-05T05:58:12.653Z,18.37
2018-09-05T06:00:41.552Z,17.97
2018-09-05T06:03:10.336Z,16.43
2018-09-05T06:05:39.161Z,17.43
2018-09-05T06:08:07.960Z,16.43
2018-09-05T06:10:36.765Z,18.70
2018-09-05T06:13:05.593Z,16.30
2018-09-05T06:15:34.419Z,16.67
2018-09-05T06:18:03.298Z,16.43
2018-09-05T06:20:32.077Z,16.50
2018-09-05T06:23:00.842Z,15.13
2018-09-05T06:25:29.630Z,17.20
2018-09-05T06:27:58.582Z,14.60
2018-09-05T06:30:27.554Z,16.27
2018-09-05T06:32:56.355Z,16.20
2018-09-05T06:35:25.119Z,16.07
2018-09-05T06:37:53.974Z,15.23
2018-09-05T06:40:22.781Z,15.80
2018-09-05T06:42:51.666Z,16.57
2018-09-05T06:45:20.586Z,15.10
2018-09-05T06:47:49.320Z,14.30
2018-09-05T06:50:18.125Z,15.87
2018-09-05T06:52:50.838Z,14.87
2018-09-05T06:55:19.743Z,15.27
2018-09-05T06:57:48.741Z,14.97
2018-09-05T07:00:19.288Z,14.03
2018-09-05T07:02:48.704Z,14.60
2018-09-05T07:05:18.075Z,13.90
2018-09-05T07:07:46.921Z,13.90
2018-09-05T07:10:15.804Z,13.80
2018-09-05T07:12:44.613Z,14.13
2018-09-05T07:15:13.693Z,13.33
2018-09-05T07:17:42.548Z,14.53
2018-09-05T07:20:11.335Z,13.50
2018-09-05T07:22:40.188Z,13.97
2018-09-05T07:25:09.048Z,14.67
2018-09-05T07:27:37.791Z,15.20
2018-09-05T07:30:06.716Z,14.40
2018-09-05T07:32:35.497Z,15.50
2018-09-05T07:35:04.379Z,14.10
2018-09-05T07:37:33.246Z,13.37
2018-09-05T07:40:02.032Z,13.60
2018-09-05T07:42:31.235Z,13.50
2018-09-05T07:45:00.006Z,13.97
2018-09-05T07:47:28.861Z,14.80
2018-09-05T07:49:57.683Z,12.50
2018-09-05T07:52:26.492Z,15.27
2018-09-05T07:54:55.301Z,14.53
2018-09-05T07:57:24.161Z,13.90
2018-09-05T07:59:53.229Z,13.57
2018-09-05T08:02:22.124Z,14.13
2018-09-05T08:04:50.977Z,12.90
2018-09-05T08:07:19.775Z,11.50
2018-09-05T08:09:48.572Z,13.27
2018-09-05T08:12:17.355Z,13.00
2018-09-05T08:14:46.514Z,13.17
2018-09-05T08:17:15.264Z,14.63
2018-09-05T08:19:44.097Z,14.33
2018-09-05T08:22:12.945Z,13.50
2018-09-05T08:24:41.868Z,14.30
2018-09-05T08:27:10.644Z,12.73
2018-09-05T08:29:39.427Z,11.83
2018-09-05T08:32:08.255Z,13.33
2018-09-05T08:34:37.439Z,12.60
2018-09-05T08:37:06.506Z,13.30
2018-09-05T08:39:35.137Z,14.07
2018-09-05T08:42:04.178Z,12.83
2018-09-05T08:44:33.098Z,11.57
2018-09-05T08:47:01.829Z,13.53
2018-09-05T08:49:30.582Z,12.57
2018-09-05T08:51:59.419Z,12.03
2018-09-05T08:54:28.513Z,12.97
2018-09-05T08:56:57.398Z,11.83
2018-09-05T08:59:27.218Z,12.27
2018-09-05T09:01:56.028Z,11.73
2018-09-05T09:04:24.939Z,10.33
2018-09-05T09:06:53.675Z,10.00
2018-09-05T09:09:22.460Z,10.27
2018-09-05T09:11:51.252Z,9.37
2018-09-05T09:14:20.389Z,10.70
2018-09-05T09:16:49.217Z,9.73
2018-09-05T09:19:18.001Z,9.00
2018-09-05T09:21:46.848Z,10.07
2018-09-05T09:24:15.686Z,9.73
2018-09-05T09:26:44.496Z,9.97
2018-09-05T09:29:13.305Z,8.87
2018-09-05T09:31:42.085Z,8.20
2018-09-05T09:34:10.938Z,8.10
2018-09-05T09:36:39.708Z,7.30
2018-09-05T09:39:10.162Z,8.17
2018-09-05T09:41:39.449Z,7.40
2018-09-05T09:44:08.340Z,7.87
2018-09-05T09:46:37.260Z,7.07
2018-09-05T09:49:06.115Z,7.33
2018-09-05T09:51:34.922Z,6.40
2018-09-05T09:54:03.790Z,6.53
2018-09-05T09:56:32.547Z,6.53
2018-09-05T09:59:01.430Z,6.13
2018-09-05T10:01:35.564Z,6.33
2018-09-05T10:04:09.746Z,6.50
2018-09-05T10:06:41.130Z,6.57
2018-09-05T10:09:15.103Z,5.20
2018-09-05T10:11:49.797Z,6.00
2018-09-05T10:14:23.963Z,6.20
2018-09-05T10:16:58.202Z,5.83
2018-09-05T10:19:27.126Z,5.77
2018-09-05T10:21:56.019Z,6.80
2018-09-05T10:24:24.998Z,5.83
2018-09-05T10:26:54.030Z,6.10
2018-09-05T10:29:22.792Z,5.10
2018-09-05T10:31:51.653Z,5.30
2018-09-05T10:34:20.491Z,5.87
2018-09-05T10:36:49.332Z,7.30
2018-09-05T10:39:18.099Z,4.80
2018-09-05T10:41:46.968Z,5.10
2018-09-05T10:44:15.831Z,5.13
2018-09-05T10:46:44.602Z,5.50
2018-09-05T10:49:13.383Z,5.40
2018-09-05T10:51:47.517Z,5.27
2018-09-05T10:54:16.274Z,5.00
2018-09-05T10:56:45.059Z,5.00
2018-09-05T10:59:13.856Z,5.30
2018-09-05T11:01:42.838Z,5.10
2018-09-05T11:04:11.647Z,4.67
2018-09-05T11:06:40.494Z,4.90
2018-09-05T11:09:10.950Z,4.60
2018-09-05T11:11:40.404Z,5.60
2018-09-05T11:14:10.345Z,5.67
2018-09-05T11:16:39.488Z,4.80
2018-09-05T11:19:08.764Z,5.00
2018-09-05T11:21:37.718Z,5.70
2018-09-05T11:24:07.000Z,5.20
2018-09-05T11:26:35.853Z,5.70
2018-09-05T11:29:04.749Z,5.67
2018-09-05T11:31:33.506Z,6.53
2018-09-05T11:34:02.272Z,5.30
2018-09-05T11:36:31.451Z,6.23
2018-09-05T11:39:00.259Z,4.80
2018-09-05T11:41:29.033Z,4.80
2018-09-05T11:43:57.922Z,5.13
2018-09-05T11:46:26.681Z,5.47
2018-09-05T11:48:55.510Z,5.63
2018-09-05T11:51:24.331Z,4.57
2018-09-05T11:53:53.109Z,3.90
2018-09-05T11:56:21.899Z,4.00
2018-09-05T11:58:50.707Z,4.30
2018-09-05T12:01:19.475Z,3.97
2018-09-05T12:03:48.344Z,4.10
2018-09-05T12:06:17.286Z,4.37
2018-09-05T12:08:46.105Z,4.47
2018-09-05T12:11:14.865Z,4.10
2018-09-05T12:13:44.213Z,4.00
2018-09-05T12:16:13.005Z,4.40
2018-09-05T12:18:41.743Z,4.60
2018-09-05T12:21:10.964Z,3.90
2018-09-05T12:23:39.861Z,3.70
2018-09-05T12:26:08.661Z,4.30
2018-09-05T12:28:38.265Z,3.97
2018-09-05T12:31:07.135Z,3.60
2018-09-05T12:33:35.941Z,4.77
2018-09-05T12:36:04.770Z,4.60
2018-09-05T12:38:33.576Z,3.83
2018-09-05T12:41:02.346Z,4.70
2018-09-05T12:43:31.145Z,3.83
2018-09-05T12:45:59.917Z,3.57
2018-09-05T12:48:28.703Z,4.63
2018-09-05T12:50:57.549Z,4.23
2018-09-05T12:53:26.361Z,4.30
2018-09-05T12:55:55.125Z,4.20
2018-09-05T12:58:23.952Z,4.50
2018-09-05T13:00:52.804Z,3.60
2018-09-05T13:03:21.682Z,4.17
2018-09-05T13:05:50.484Z,4.17
2018-09-05T13:08:19.252Z,3.70
2018-09-05T13:10:48.049Z,3.73
2018-09-05T13:13:16.903Z,4.50
2018-09-05T13:15:46.185Z,4.13
2018-09-05T13:18:15.017Z,4.10
2018-09-05T13:20:44.688Z,4.40
2018-09-05T13:23:14.704Z,4.00
2018-09-05T13:25:43.617Z,3.97
2018-09-05T13:28:12.423Z,3.07
2018-09-05T13:30:41.197Z,4.73
2018-09-05T13:33:10.362Z,4.63
2018-09-05T13:35:39.150Z,3.60
2018-09-05T13:38:07.920Z,3.80
2018-09-05T13:40:36.888Z,3.70
2018-09-05T13:43:06.592Z,3.30
2018-09-05T13:45:36.172Z,3.93
2018-09-05T13:48:06.132Z,3.77
2018-09-05T13:50:35.064Z,3.60
2018-09-05T13:53:03.978Z,3.90
2018-09-05T13:55:32.855Z,4.30
2018-09-05T13:58:01.753Z,4.00
2018-09-05T14:00:30.524Z,3.70
2018-09-05T14:02:59.293Z,4.20
2018-09-05T14:05:28.116Z,4.00
2018-09-05T14:07:57.230Z,3.00
2018-09-05T14:10:26.421Z,4.07
2018-09-05T14:12:55.848Z,4.27
2018-09-05T14:15:25.542Z,3.83
2018-09-05T14:17:55.067Z,4.50
2018-09-05T14:20:24.578Z,3.60
2018-09-05T14:22:55.083Z,3.73
2018-09-05T14:25:25.156Z,3.97
2018-09-05T14:27:55.812Z,3.67
2018-09-05T14:30:28.096Z,4.33
2018-09-05T14:32:56.836Z,3.10
2018-09-05T14:35:27.266Z,2.90
2018-09-05T14:37:56.717Z,3.03
2018-09-05T14:40:26.068Z,3.57
2018-09-05T14:42:55.769Z,3.10
2018-09-05T14:45:25.088Z,3.70
2018-09-05T14:47:54.825Z,2.83
2018-09-05T14:50:23.628Z,3.90
2018-09-05T14:52:52.539Z,3.70
2018-09-05T14:55:21.362Z,3.77
2018-09-05T14:57:50.425Z,4.17
2018-09-05T15:00:19.208Z,4.10
2018-09-05T15:02:48.544Z,3.90
2018-09-05T15:05:17.305Z,4.13
2018-09-05T15:07:50.033Z,4.20
2018-09-05T15:10:18.913Z,3.87
2018-09-05T15:12:47.752Z,4.43
2018-09-05T15:15:17.252Z,4.40
2018-09-05T15:17:46.137Z,3.87
2018-09-05T15:20:15.424Z,3.70
2018-09-05T15:22:44.357Z,3.53
2018-09-05T15:25:13.279Z,3.83
2018-09-05T15:27:42.171Z,3.83
2018-09-05T15:30:11.228Z,3.40
2018-09-05T15:32:40.281Z,4.50
2018-09-05T15:35:09.148Z,3.47
2018-09-05T15:43:34.297Z,3.50
2018-09-05T15:46:03.244Z,3.40
2018-09-05T15:48:32.179Z,3.87
2018-09-05T15:51:02.519Z,4.70
2018-09-05T15:53:32.463Z,3.87
2018-09-05T15:56:01.272Z,4.27
2018-09-05T15:58:30.152Z,4.30
2018-09-05T16:00:59.321Z,4.27
2018-09-05T16:03:28.231Z,3.33
2018-09-05T16:05:58.485Z,4.30
2018-09-05T16:08:27.520Z,4.17
2018-09-05T16:10:56.839Z,3.87
2018-09-05T16:13:26.721Z,4.17
2018-09-05T16:15:58.687Z,4.00
2018-09-05T16:18:29.132Z,3.97
2018-09-05T16:20:59.315Z,4.10
2018-09-05T16:23:28.983Z,4.03
2018-09-05T16:25:58.260Z,4.30
2018-09-05T16:28:27.285Z,4.23
2018-09-05T16:30:56.608Z,3.90
2018-09-05T16:33:26.108Z,3.70
2018-09-05T16:35:55.469Z,4.17
2018-09-05T16:38:25.415Z,4.07
2018-09-05T16:40:54.930Z,4.07
2018-09-05T16:43:24.450Z,4.63
2018-09-05T16:45:53.436Z,3.73
2018-09-05T16:48:23.147Z,4.20
2018-09-05T16:50:53.099Z,4.03
2018-09-05T16:53:23.200Z,4.00
2018-09-05T16:55:53.859Z,4.50
2018-09-05T16:58:23.669Z,3.83
2018-09-05T17:00:53.308Z,3.70
2018-09-05T17:03:23.157Z,4.10
2018-09-05T17:05:52.598Z,3.50
2018-09-05T17:08:22.295Z,3.70
2018-09-05T17:10:51.679Z,3.80
2018-09-05T17:13:22.008Z,4.33
2018-09-05T17:15:52.740Z,4.50
2018-09-05T17:18:21.964Z,3.80
2018-09-05T17:20:52.213Z,3.67
2018-09-05T17:23:37.382Z,3.40
2018-09-05T17:26:08.670Z,3.97
2018-09-05T17:28:39.332Z,4.30
2018-09-05T17:31:09.461Z,4.00
2018-09-05T17:33:38.526Z,3.90
2018-09-05T17:36:08.095Z,3.80
2018-09-05T17:38:37.576Z,4.00
2018-09-05T17:41:07.074Z,3.87
2018-09-05T17:43:37.071Z,4.00
2018-09-05T17:46:07.170Z,3.60
2018-09-05T17:48:37.428Z,3.90
2018-09-05T17:51:06.944Z,3.83
2018-09-05T17:53:36.270Z,4.97
2018-09-05T17:56:05.524Z,5.10
2018-09-05T17:58:34.668Z,4.20
2018-09-05T18:01:06.146Z,4.40
2018-09-05T18:03:45.885Z,4.37
2018-09-05T18:06:14.808Z,4.30
2018-09-05T18:08:43.805Z,4.70
2018-09-05T18:11:13.113Z,5.20
2018-09-05T18:13:41.966Z,4.97
2018-09-05T18:16:10.836Z,4.43
2018-09-05T18:18:39.677Z,5.20
2018-09-05T18:21:08.440Z,5.37
2018-09-05T18:23:37.225Z,4.93
2018-09-05T18:26:06.262Z,5.40
2018-09-05T18:28:35.773Z,6.20
2018-09-05T18:31:04.961Z,5.70
2018-09-05T18:33:33.747Z,6.93
2018-09-05T18:36:03.221Z,5.40
2018-09-05T18:38:32.071Z,4.63
2018-09-05T18:41:07.317Z,4.00
2018-09-05T18:43:36.113Z,3.87
2018-09-05T18:46:10.412Z,3.90
2018-09-05T18:48:43.172Z,4.17
2018-09-05T18:51:14.130Z,4.10
2018-09-05T18:53:47.148Z,4.23
2018-09-05T18:56:19.799Z,3.87
2018-09-05T18:58:48.918Z,4.00
2018-09-05T19:01:18.433Z,4.53
2018-09-05T19:03:47.262Z,4.10
2018-09-05T19:06:16.338Z,3.97
2018-09-05T19:08:45.172Z,4.00
2018-09-05T19:11:15.625Z,4.40
2018-09-05T19:13:44.773Z,5.00
2018-09-05T19:16:14.609Z,4.50
2018-09-05T19:18:43.479Z,4.57
2018-09-05T19:21:12.317Z,5.07
2018-09-05T19:23:41.102Z,4.17
2018-09-05T19:26:09.958Z,4.40
2018-09-05T19:28:41.177Z,4.63
2018-09-05T19:31:09.950Z,5.47
2018-09-05T19:33:44.748Z,5.10
2018-09-05T19:36:13.822Z,5.70
2018-09-05T19:38:42.766Z,5.23
2018-09-05T19:41:11.648Z,4.33
2018-09-05T19:43:41.929Z,4.77
2018-09-05T19:46:11.833Z,4.23
2018-09-05T19:48:45.730Z,4.40
2018-09-05T19:51:15.181Z,5.00
2018-09-05T19:53:44.190Z,5.07
2018-09-05T19:56:13.074Z,4.40
2018-09-05T19:58:41.901Z,3.77
2018-09-05T20:01:10.681Z,4.10
2018-09-05T20:03:39.659Z,3.90
2018-09-05T20:06:08.544Z,3.90
2018-09-05T20:08:39.250Z,3.80
2018-09-05T20:11:09.665Z,3.90
2018-09-05T20:13:39.041Z,5.57
2018-09-05T20:16:08.185Z,4.10
2018-09-05T20:21:23.752Z,4.30
2018-09-05T20:23:52.553Z,3.67
2018-09-05T20:26:21.425Z,4.40
2018-09-05T20:28:51.136Z,5.00
2018-09-05T20:31:26.008Z,4.40
2018-09-05T20:33:55.027Z,4.43
2018-09-05T20:36:24.227Z,3.97
2018-09-05T20:38:54.084Z,4.90
2018-09-05T20:41:22.959Z,4.90
2018-09-05T20:43:51.759Z,4.77
2018-09-05T20:46:20.608Z,4.67
2018-09-05T20:48:49.471Z,4.20
2018-09-05T20:51:18.318Z,4.27
2018-09-05T20:53:47.121Z,5.17
2018-09-05T20:56:15.978Z,4.60
2018-09-05T20:58:44.843Z,4.73
2018-09-05T21:01:13.681Z,4.50
2018-09-05T21:03:42.460Z,5.07
2018-09-05T21:06:11.322Z,5.23
2018-09-05T21:08:40.185Z,4.93
2018-09-05T21:11:08.920Z,3.87
2018-09-05T21:13:37.824Z,5.60
2018-09-05T21:16:06.928Z,4.43
2018-09-05T21:18:35.720Z,4.60
2018-09-05T21:21:04.520Z,4.40
2018-09-05T21:23:33.360Z,4.77
2018-09-05T21:26:02.285Z,4.07
2018-09-05T21:28:31.083Z,5.53
2018-09-05T21:30:59.952Z,5.40
2018-09-05T21:33:35.595Z,5.17
2018-09-05T21:36:04.492Z,5.90
2018-09-05T21:38:33.282Z,6.13
2018-09-05T21:41:02.096Z,5.50
2018-09-05T21:43:30.888Z,5.33
2018-09-05T21:45:59.697Z,4.90
2018-09-05T21:48:28.616Z,5.60
2018-09-05T21:50:57.412Z,6.33
2018-09-05T21:53:26.189Z,5.53
2018-09-05T21:55:55.040Z,6.37
2018-09-05T21:58:23.843Z,5.73
2018-09-05T22:00:52.673Z,5.67
2018-09-05T22:03:21.490Z,5.80
2018-09-05T22:05:50.325Z,6.10
2018-09-05T22:08:19.119Z,5.87
2018-09-05T22:10:48.071Z,7.17
2018-09-05T22:13:16.916Z,6.40
2018-09-05T22:15:47.658Z,6.63
2018-09-05T22:18:17.464Z,7.33
2018-09-05T22:20:46.301Z,6.87
2018-09-05T22:23:24.263Z,6.83
2018-09-05T22:25:53.074Z,6.73
2018-09-05T22:28:22.042Z,6.10
2018-09-05T22:30:50.811Z,6.47
2018-09-05T22:33:19.612Z,6.93
2018-09-05T22:35:48.755Z,7.07
2018-09-05T22:38:17.538Z,7.57
2018-09-05T22:40:51.658Z,7.80
2018-09-05T22:43:31.461Z,7.00
2018-09-05T22:47:09.934Z,7.23
2018-09-05T22:52:14.106Z,8.13
2018-09-05T22:57:06.032Z,8.30
2018-09-05T23:00:48.861Z,8.00
2018-09-05T23:03:43.588Z,7.70
2018-09-05T23:07:27.110Z,7.97
2018-09-05T23:10:07.029Z,8.73
2018-09-05T23:12:46.958Z,8.50
2018-09-05T23:15:26.856Z,10.07
2018-09-05T23:18:06.840Z,10.27
2018-09-05T23:21:39.907Z,8.90
2018-09-05T23:24:09.899Z,8.70
2018-09-05T23:26:38.882Z,9.00
2018-09-05T23:29:07.699Z,8.90
2018-09-05T23:31:36.636Z,8.97
2018-09-05T23:34:05.443Z,9.60
2018-09-05T23:36:36.826Z,8.57
2018-09-05T23:39:09.920Z,9.63
2018-09-05T23:41:38.894Z,10.47
2018-09-05T23:44:07.695Z,8.30
2018-09-05T23:46:36.583Z,18.47
2018-09-05T23:49:05.495Z,8.90
2018-09-05T23:51:34.332Z,18.23
2018-09-05T23:54:03.226Z,9.67
2018-09-05T23:56:32.111Z,9.40
2018-09-05T23:59:05.421Z,11.23
